createdAt,value
2023-04-04T00:02:26.894Z,2.60
2023-04-04T00:06:35.089Z,2.53
2023-04-04T00:10:44.184Z,1.90
2023-04-04T00:14:48.834Z,2.40
2023-04-04T00:18:57.675Z,2.00
2023-04-04T00:23:00.619Z,2.10
2023-04-04T00:27:05.994Z,2.13
2023-04-04T00:31:12.087Z,2.53
2023-04-04T00:35:18.857Z,2.73
2023-04-04T00:39:28.635Z,2.87
2023-04-04T00:43:33.629Z,2.23
2023-04-04T00:47:39.199Z,2.27
2023-04-04T00:51:43.380Z,2.50
2023-04-04T00:55:46.279Z,2.23
2023-04-04T00:59:50.644Z,2.43
2023-04-04T01:03:53.799Z,2.20
2023-04-04T01:07:58.605Z,2.73
2023-04-04T01:12:02.463Z,2.37
2023-04-04T01:16:08.206Z,2.10
2023-04-04T01:20:14.127Z,1.97
2023-04-04T01:24:23.128Z,2.13
2023-04-04T01:28:30.446Z,2.07
2023-04-04T01:32:47.914Z,2.73
2023-04-04T01:36:55.456Z,2.00
2023-04-04T01:41:03.731Z,2.33
2023-04-04T01:45:09.837Z,2.00
2023-04-04T01:49:13.684Z,2.43
2023-04-04T01:53:20.369Z,2.37
2023-04-04T01:57:23.200Z,2.50
2023-04-04T02:01:27.410Z,2.70
2023-04-04T02:05:30.206Z,2.60
2023-04-04T02:09:34.249Z,2.40
2023-04-04T02:13:41.314Z,2.27
2023-04-04T02:17:51.632Z,2.50
2023-04-04T02:21:54.524Z,2.60
2023-04-04T02:25:58.814Z,2.70
2023-04-04T02:30:01.609Z,2.30
2023-04-04T02:34:07.456Z,2.73
2023-04-04T02:38:10.265Z,2.40
2023-04-04T02:42:15.068Z,3.23
2023-04-04T02:46:21.627Z,2.40
2023-04-04T02:50:27.150Z,2.50
2023-04-04T02:54:31.132Z,2.97
2023-04-04T02:58:34.033Z,2.33
2023-04-04T03:02:37.044Z,2.37
2023-04-04T03:06:44.344Z,2.80
2023-04-04T03:10:47.485Z,2.57
2023-04-04T03:14:50.381Z,2.77
2023-04-04T03:18:53.192Z,3.43
2023-04-04T03:22:57.918Z,2.30
2023-04-04T03:27:06.353Z,2.50
2023-04-04T03:31:09.189Z,2.50
2023-04-04T03:35:14.625Z,2.53
2023-04-04T03:39:21.792Z,2.50
2023-04-04T03:43:28.360Z,2.60
2023-04-04T03:47:31.275Z,2.43
2023-04-04T03:51:35.714Z,2.60
2023-04-04T03:55:44.387Z,2.07
2023-04-04T03:59:52.306Z,2.63
2023-04-04T04:03:55.383Z,2.70
2023-04-04T04:07:58.193Z,3.07
2023-04-04T04:12:02.321Z,2.60
2023-04-04T04:16:06.256Z,2.50
2023-04-04T04:20:10.572Z,2.40
2023-04-04T04:24:13.351Z,3.17
2023-04-04T04:28:20.247Z,3.13
2023-04-04T04:32:27.958Z,2.57
2023-04-04T04:36:30.849Z,2.70
2023-04-04T04:40:33.717Z,2.50
2023-04-04T04:44:37.952Z,3.10
2023-04-04T04:48:42.069Z,3.17
2023-04-04T04:52:45.074Z,2.77
2023-04-04T04:56:48.208Z,2.83
2023-04-04T05:00:56.548Z,3.20
2023-04-04T05:05:05.392Z,3.27
2023-04-04T05:09:08.931Z,3.50
2023-04-04T05:13:14.035Z,3.13
2023-04-04T05:17:19.670Z,3.00
2023-04-04T05:21:23.590Z,3.33
2023-04-04T05:25:29.061Z,3.67
2023-04-04T05:29:31.954Z,4.93
2023-04-04T05:33:36.162Z,3.37
2023-04-04T05:37:40.650Z,2.70
2023-04-04T05:41:43.698Z,2.80
2023-04-04T05:45:46.616Z,3.03
2023-04-04T05:49:53.530Z,3.13
2023-04-04T05:53:56.464Z,2.53
2023-04-04T05:57:59.270Z,2.80
2023-04-04T06:02:02.206Z,2.90
2023-04-04T06:06:10.314Z,3.90
2023-04-04T06:10:18.209Z,2.97
2023-04-04T06:14:27.256Z,2.83
2023-04-04T06:18:30.709Z,2.57
2023-04-04T06:22:35.054Z,2.13
2023-04-04T06:26:37.840Z,2.43
2023-04-04T06:30:41.269Z,3.00
2023-04-04T06:34:47.840Z,3.10
2023-04-04T06:38:52.149Z,2.87
2023-04-04T06:42:57.888Z,3.47
2023-04-04T06:47:00.709Z,2.60
2023-04-04T06:51:09.330Z,3.40
2023-04-04T06:55:23.357Z,3.07
2023-04-04T06:59:31.226Z,3.30
2023-04-04T07:03:34.071Z,3.30
2023-04-04T07:07:37.183Z,3.50
2023-04-04T07:11:44.306Z,3.27
2023-04-04T07:15:48.917Z,3.20
2023-04-04T07:19:52.970Z,2.80
2023-04-04T07:24:03.938Z,3.27
2023-04-04T07:28:12.790Z,2.63
2023-04-04T07:32:17.065Z,3.30
2023-04-04T07:36:19.906Z,3.53
2023-04-04T07:40:22.932Z,3.73
2023-04-04T07:44:27.109Z,3.30
2023-04-04T07:48:30.242Z,3.47
2023-04-04T07:52:33.470Z,3.73
2023-04-04T07:56:36.996Z,3.20
2023-04-04T08:00:41.426Z,4.23
2023-04-04T08:04:45.061Z,3.30
2023-04-04T08:08:48.361Z,3.23
2023-04-04T08:12:55.192Z,2.93
2023-04-04T08:17:04.598Z,3.97
2023-04-04T08:21:07.478Z,3.20
2023-04-04T08:25:11.354Z,3.07
2023-04-04T08:29:14.385Z,3.03
2023-04-04T08:33:22.113Z,3.10
2023-04-04T08:37:33.520Z,2.77
2023-04-04T08:41:37.280Z,2.80
2023-04-04T08:45:43.310Z,3.70
2023-04-04T08:49:51.574Z,3.00
2023-04-04T08:53:55.439Z,3.40
2023-04-04T08:57:58.249Z,3.50
2023-04-04T09:02:15.810Z,3.00
2023-04-04T09:06:23.421Z,3.47
2023-04-04T09:10:31.124Z,3.20
2023-04-04T09:14:39.785Z,3.10
2023-04-04T09:18:46.052Z,2.60
2023-04-04T09:22:50.851Z,3.27
2023-04-04T09:26:56.483Z,3.00
2023-04-04T09:31:04.935Z,2.97
2023-04-04T09:35:08.511Z,3.10
2023-04-04T09:39:13.358Z,2.60
2023-04-04T09:43:18.176Z,3.57
2023-04-04T09:47:31.528Z,2.70
2023-04-04T09:51:36.890Z,3.63
2023-04-04T09:55:41.829Z,3.50
2023-04-04T09:59:47.092Z,3.07
2023-04-04T10:03:53.590Z,3.00
2023-04-04T10:07:58.608Z,3.03
2023-04-04T10:12:11.042Z,2.70
2023-04-04T10:16:15.613Z,2.90
2023-04-04T10:20:18.592Z,3.00
2023-04-04T10:24:33.402Z,2.80
2023-04-04T10:28:37.792Z,3.00
2023-04-04T10:32:51.228Z,2.97
2023-04-04T10:37:05.690Z,2.85
2023-04-04T10:41:12.970Z,2.80
2023-04-04T10:45:28.259Z,3.20
2023-04-04T10:49:37.632Z,2.70
2023-04-04T10:53:42.064Z,3.00
2023-04-04T10:57:58.484Z,2.47
2023-04-04T11:02:07.497Z,3.03
2023-04-04T11:06:15.697Z,3.53
2023-04-04T11:10:23.727Z,3.37
2023-04-04T11:14:30.520Z,2.83
2023-04-04T11:18:50.829Z,3.10
2023-04-04T11:23:09.902Z,3.00
2023-04-04T11:27:14.610Z,2.80
2023-04-04T11:31:25.805Z,2.60
2023-04-04T11:35:31.533Z,3.10
2023-04-04T11:39:34.389Z,2.53
2023-04-04T11:43:46.146Z,2.70
2023-04-04T11:47:56.823Z,3.10
2023-04-04T11:52:04.994Z,3.00
2023-04-04T11:56:08.332Z,2.83
2023-04-04T12:00:16.075Z,2.40
2023-04-04T12:04:20.391Z,3.00
2023-04-04T12:08:26.519Z,2.90
2023-04-04T12:12:32.080Z,2.80
2023-04-04T12:16:39.325Z,3.57
2023-04-04T12:20:42.445Z,2.77
2023-04-04T12:24:50.861Z,3.30
2023-04-04T12:28:57.136Z,2.77
2023-04-04T12:33:03.533Z,3.27
2023-04-04T12:37:12.055Z,2.90
2023-04-04T12:41:19.832Z,3.10
2023-04-04T12:45:24.024Z,3.03
2023-04-04T12:49:30.166Z,3.20
2023-04-04T12:53:33.641Z,2.87
2023-04-04T12:57:44.957Z,3.00
2023-04-04T13:01:50.407Z,3.20
2023-04-04T13:05:56.536Z,2.80
2023-04-04T13:10:01.363Z,3.00
2023-04-04T13:14:11.989Z,3.50
2023-04-04T13:18:17.067Z,3.13
2023-04-04T13:22:22.774Z,3.10
2023-04-04T13:26:26.215Z,3.00
2023-04-04T13:30:32.070Z,3.07
2023-04-04T13:34:36.182Z,2.87
2023-04-04T13:38:41.254Z,2.60
2023-04-04T13:42:44.213Z,3.87
2023-04-04T13:46:48.474Z,3.20
2023-04-04T13:50:53.337Z,3.20
2023-04-04T13:54:57.448Z,3.37
2023-04-04T13:59:00.368Z,3.40
2023-04-04T14:03:07.477Z,3.93
2023-04-04T14:07:10.872Z,3.50
2023-04-04T14:11:14.175Z,3.63
2023-04-04T14:15:17.506Z,3.60
2023-04-04T14:19:27.346Z,3.70
2023-04-04T14:23:31.092Z,3.43
2023-04-04T14:27:38.066Z,4.20
2023-04-04T14:31:40.946Z,3.30
2023-04-04T14:35:46.069Z,4.40
2023-04-04T14:39:49.070Z,3.60
2023-04-04T14:43:52.338Z,3.83
2023-04-04T14:47:55.537Z,3.40
2023-04-04T14:51:59.993Z,3.40
2023-04-04T14:56:04.157Z,3.63
2023-04-04T15:00:08.851Z,4.07
2023-04-04T15:04:13.948Z,4.10
2023-04-04T15:08:18.162Z,4.60
2023-04-04T15:12:21.080Z,3.50
2023-04-04T15:16:25.205Z,3.50
2023-04-04T15:20:29.059Z,3.60
2023-04-04T15:24:35.869Z,3.77
2023-04-04T15:28:39.156Z,3.57
2023-04-04T15:32:42.094Z,3.77
2023-04-04T15:36:44.988Z,3.47
2023-04-04T15:40:52.937Z,3.60
2023-04-04T15:44:55.996Z,3.28
2023-04-04T15:49:01.158Z,3.58
2023-04-04T15:53:03.946Z,4.03
2023-04-04T15:57:12.913Z,4.20
2023-04-04T16:01:18.624Z,5.73
2023-04-04T16:05:22.654Z,4.07
2023-04-04T16:09:29.276Z,4.17
2023-04-04T16:13:33.754Z,3.80
2023-04-04T16:17:37.635Z,3.63
2023-04-04T16:21:42.710Z,3.50
2023-04-04T16:25:49.045Z,4.10
2023-04-04T16:29:53.458Z,5.27
2023-04-04T16:33:56.261Z,4.27
2023-04-04T16:37:59.016Z,3.70
2023-04-04T16:42:03.184Z,3.63
2023-04-04T16:46:12.014Z,4.30
2023-04-04T16:50:17.957Z,4.20
2023-04-04T16:54:20.806Z,4.67
2023-04-04T16:58:23.843Z,3.57
2023-04-04T17:02:28.388Z,4.30
2023-04-04T17:06:35.784Z,4.13
2023-04-04T17:10:40.687Z,4.20
2023-04-04T17:14:43.752Z,3.80
2023-04-04T17:18:50.334Z,5.07
2023-04-04T17:22:56.198Z,6.57
2023-04-04T17:27:00.330Z,3.70
2023-04-04T17:31:03.579Z,4.60
2023-04-04T17:35:10.517Z,4.50
2023-04-04T17:39:13.476Z,4.37
2023-04-04T17:43:16.862Z,4.63
2023-04-04T17:47:20.194Z,4.20
2023-04-04T17:51:24.434Z,4.20
2023-04-04T17:55:30.152Z,4.07
2023-04-04T17:59:33.218Z,4.50
2023-04-04T18:03:38.133Z,4.70
2023-04-04T18:07:47.974Z,4.67
2023-04-04T18:11:53.729Z,5.27
2023-04-04T18:15:59.427Z,4.23
2023-04-04T18:20:04.243Z,4.77
2023-04-04T18:24:11.337Z,5.20
2023-04-04T18:28:14.509Z,4.90
2023-04-04T18:32:28.875Z,5.50
2023-04-04T18:36:32.419Z,5.13
2023-04-04T18:40:37.927Z,6.17
2023-04-04T18:44:41.211Z,5.70
2023-04-04T18:48:44.022Z,5.53
2023-04-04T18:52:49.196Z,4.53
2023-04-04T18:56:53.716Z,5.07
2023-04-04T19:00:58.577Z,5.80
2023-04-04T19:05:07.040Z,5.37
2023-04-04T19:09:11.105Z,5.97
2023-04-04T19:13:18.422Z,5.83
2023-04-04T19:17:21.473Z,6.60
2023-04-04T19:21:28.626Z,6.50
2023-04-04T19:25:35.179Z,6.43
2023-04-04T19:29:39.720Z,6.03
2023-04-04T19:33:48.956Z,6.33
2023-04-04T19:37:53.841Z,5.60
2023-04-04T19:41:56.731Z,6.17
2023-04-04T19:46:12.189Z,6.43
2023-04-04T19:50:35.545Z,6.20
2023-04-04T19:54:43.293Z,6.37
2023-04-04T19:58:48.358Z,6.37
2023-04-04T20:02:54.529Z,6.30
2023-04-04T20:06:57.688Z,6.60
2023-04-04T20:11:02.028Z,6.97
2023-04-04T20:15:14.924Z,6.77
2023-04-04T20:19:22.211Z,6.50
2023-04-04T20:23:26.119Z,6.40
2023-04-04T20:27:29.060Z,6.63
2023-04-04T20:31:36.231Z,6.07
2023-04-04T20:35:43.117Z,6.17
2023-04-04T20:39:50.516Z,7.83
2023-04-04T20:43:54.787Z,6.40
2023-04-04T20:48:04.419Z,6.27
2023-04-04T20:52:23.350Z,6.60
2023-04-04T20:56:57.163Z,6.87
2023-04-04T21:01:04.078Z,6.37
2023-04-04T21:05:27.439Z,7.13
2023-04-04T21:09:32.303Z,6.67
2023-04-04T21:13:44.537Z,6.90
2023-04-04T21:17:51.126Z,7.23
2023-04-04T21:21:54.006Z,8.60
2023-04-04T21:26:00.016Z,8.07
2023-04-04T21:30:02.910Z,10.03
2023-04-04T21:34:19.733Z,8.83
2023-04-04T21:38:32.897Z,5.60
2023-04-04T21:42:37.052Z,6.93
2023-04-04T21:46:41.746Z,6.80
2023-04-04T21:50:47.645Z,7.37
2023-04-04T21:54:50.474Z,6.40
2023-04-04T21:58:55.469Z,6.07
2023-04-04T22:02:58.596Z,7.13
2023-04-04T22:07:01.601Z,6.03
2023-04-04T22:11:05.842Z,4.90
2023-04-04T22:15:15.829Z,4.73
2023-04-04T22:19:26.669Z,4.63
2023-04-04T22:23:36.652Z,5.10
2023-04-04T22:27:42.622Z,4.67
2023-04-04T22:31:49.338Z,4.33
2023-04-04T22:35:55.182Z,4.37
2023-04-04T22:40:01.598Z,4.13
2023-04-04T22:44:04.585Z,4.17
2023-04-04T22:48:09.217Z,4.47
2023-04-04T22:52:12.989Z,5.03
2023-04-04T22:56:20.774Z,4.80
2023-04-04T23:00:23.680Z,4.50
2023-04-04T23:04:30.158Z,4.63
2023-04-04T23:08:35.119Z,5.00
2023-04-04T23:12:38.378Z,4.47
2023-04-04T23:16:45.038Z,4.90
2023-04-04T23:20:50.442Z,5.17
2023-04-04T23:24:55.787Z,5.20
2023-04-04T23:29:07.155Z,5.40
2023-04-04T23:33:14.414Z,4.67
2023-04-04T23:37:18.736Z,4.90
2023-04-04T23:41:21.557Z,5.03
2023-04-04T23:45:27.310Z,5.40
2023-04-04T23:49:30.240Z,4.80
2023-04-04T23:53:37.324Z,4.80
2023-04-04T23:57:40.594Z,5.37
